createdAt,value
2024-01-08T00:00:56.233Z,72.53
2024-01-08T00:05:06.208Z,72.74
2024-01-08T00:09:04.174Z,72.78
2024-01-08T00:13:02.152Z,72.96
2024-01-08T00:17:00.260Z,73.05
2024-01-08T00:20:58.146Z,73.06
2024-01-08T00:24:56.166Z,72.93
2024-01-08T00:28:54.153Z,72.78
2024-01-08T00:32:52.553Z,72.72
2024-01-08T00:36:50.139Z,72.91
2024-01-08T00:40:48.196Z,72.57
2024-01-08T00:44:46.093Z,72.76
2024-01-08T00:48:44.100Z,72.95
2024-01-08T00:52:42.106Z,72.74
2024-01-08T00:56:40.181Z,72.82
2024-01-08T01:00:39.113Z,73.04
2024-01-08T01:04:37.262Z,72.89
2024-01-08T01:08:35.125Z,72.87
2024-01-08T01:12:33.067Z,73.24
2024-01-08T01:16:34.067Z,73.03
2024-01-08T01:20:32.135Z,72.80
2024-01-08T01:24:30.013Z,72.92
2024-01-08T01:28:28.049Z,72.91
2024-01-08T01:32:26.117Z,72.84
2024-01-08T01:36:24.097Z,72.90
2024-01-08T01:40:22.021Z,72.98
2024-01-08T01:44:20.057Z,72.77
2024-01-08T01:48:18.137Z,73.03
2024-01-08T01:52:16.018Z,73.10
2024-01-08T01:56:13.996Z,72.84
2024-01-08T02:00:12.102Z,72.94
2024-01-08T02:04:10.093Z,73.01
2024-01-08T02:08:08.005Z,73.20
2024-01-08T02:12:05.994Z,73.08
2024-01-08T02:16:03.980Z,73.04
2024-01-08T02:20:02.085Z,72.86
2024-01-08T02:24:00.950Z,72.85
2024-01-08T02:27:58.942Z,73.08
2024-01-08T02:31:57.020Z,73.11
2024-01-08T02:35:54.981Z,72.78
2024-01-08T02:39:52.933Z,72.75
2024-01-08T02:43:51.044Z,72.71
2024-01-08T02:47:49.039Z,72.35
2024-01-08T02:51:46.929Z,72.51
2024-01-08T02:55:44.903Z,72.59
2024-01-08T02:59:36.051Z,72.47
2024-01-08T03:03:34.030Z,72.44
2024-01-08T03:07:31.915Z,72.63
2024-01-08T03:11:29.978Z,72.60
2024-01-08T03:15:27.996Z,72.47
2024-01-08T03:19:25.915Z,72.42
2024-01-08T03:23:23.876Z,72.56
2024-01-08T03:27:21.868Z,72.76
2024-01-08T03:31:12.945Z,72.49
2024-01-08T03:35:10.858Z,72.28
2024-01-08T03:39:08.836Z,72.35
2024-01-08T03:43:06.864Z,72.35
2024-01-08T03:47:04.864Z,72.38
2024-01-08T03:51:02.838Z,72.20
2024-01-08T03:55:01.057Z,72.16
2024-01-08T03:58:58.882Z,72.49
2024-01-08T04:02:56.939Z,72.72
2024-01-08T04:06:54.890Z,72.69
2024-01-08T04:10:52.819Z,72.60
2024-01-08T04:14:50.858Z,72.89
2024-01-08T04:18:48.826Z,73.03
2024-01-08T04:22:46.807Z,73.22
2024-01-08T04:26:44.753Z,73.47
2024-01-08T04:30:42.785Z,73.49
2024-01-08T04:34:41.718Z,73.53
2024-01-08T04:38:39.800Z,73.71
2024-01-08T04:42:37.706Z,73.79
2024-01-08T04:46:35.715Z,73.77
2024-01-08T04:50:33.854Z,73.98
2024-01-08T04:54:31.714Z,74.04
2024-01-08T04:58:29.709Z,74.19
2024-01-08T05:02:27.912Z,74.53
2024-01-08T05:06:26.708Z,74.75
2024-01-08T05:10:24.752Z,74.90
2024-01-08T05:14:22.731Z,74.91
2024-01-08T05:18:20.842Z,74.89
2024-01-08T05:22:18.687Z,74.84
2024-01-08T05:26:16.760Z,74.89
2024-01-08T05:30:14.671Z,74.93
2024-01-08T05:34:12.714Z,75.17
2024-01-08T05:38:11.669Z,75.18
2024-01-08T05:42:09.707Z,75.46
2024-01-08T05:46:07.680Z,75.63
2024-01-08T05:50:05.650Z,75.54
2024-01-08T05:54:03.643Z,75.51
2024-01-08T05:58:01.648Z,75.57
2024-01-08T06:01:59.620Z,75.51
2024-01-08T06:05:57.690Z,75.35
2024-01-08T06:09:48.711Z,75.45
2024-01-08T06:13:46.655Z,75.22
2024-01-08T06:17:46.454Z,75.33
2024-01-08T06:21:44.667Z,75.36
2024-01-08T06:25:42.526Z,75.50
2024-01-08T06:29:40.628Z,75.52
2024-01-08T06:33:38.732Z,75.33
2024-01-08T06:37:36.540Z,75.21
2024-01-08T06:41:34.609Z,75.26
2024-01-08T06:45:32.568Z,75.32
2024-01-08T06:49:30.575Z,75.60
2024-01-08T06:53:28.591Z,75.53
2024-01-08T06:57:26.499Z,75.39
2024-01-08T07:01:04.078Z,75.42
2024-01-08T07:04:27.936Z,75.46
2024-01-08T07:07:54.112Z,75.02
2024-01-08T07:11:25.074Z,74.96
2024-01-08T07:14:49.047Z,74.99
2024-01-08T07:18:13.353Z,74.93
2024-01-08T07:21:37.486Z,74.84
2024-01-08T07:25:01.356Z,74.85
2024-01-08T07:28:25.413Z,74.59
2024-01-08T07:31:49.293Z,74.53
2024-01-08T07:35:13.720Z,74.41
2024-01-08T07:38:38.187Z,74.54
2024-01-08T07:42:02.504Z,74.19
2024-01-08T07:45:29.024Z,74.12
2024-01-08T07:48:54.623Z,74.23
2024-01-08T07:52:20.762Z,73.84
2024-01-08T07:55:48.827Z,73.21
2024-01-08T07:59:13.019Z,73.33
2024-01-08T08:02:38.172Z,72.71
2024-01-08T08:06:02.721Z,72.71
2024-01-08T08:09:26.687Z,72.94
2024-01-08T08:12:50.636Z,72.61
2024-01-08T08:16:15.315Z,72.27
2024-01-08T08:19:39.549Z,72.41
2024-01-08T08:23:03.771Z,72.39
2024-01-08T08:26:27.985Z,71.84
2024-01-08T08:29:51.977Z,71.69
2024-01-08T08:33:15.984Z,71.71
2024-01-08T08:36:40.432Z,71.54
2024-01-08T08:40:05.694Z,71.50
2024-01-08T08:43:31.608Z,71.52
2024-01-08T08:46:55.458Z,71.09
2024-01-08T08:50:19.688Z,70.69
2024-01-08T08:53:44.142Z,70.54
2024-01-08T08:57:08.060Z,70.49
2024-01-08T09:00:31.970Z,70.25
2024-01-08T09:03:56.148Z,70.02
2024-01-08T09:07:23.593Z,70.24
2024-01-08T09:10:47.757Z,69.41
2024-01-08T09:14:11.689Z,69.36
2024-01-08T09:17:36.526Z,68.60
2024-01-08T09:21:00.873Z,68.51
2024-01-08T09:24:24.942Z,68.95
2024-01-08T09:27:48.958Z,68.89
2024-01-08T09:31:13.138Z,68.57
2024-01-08T09:34:37.091Z,68.56
2024-01-08T09:38:01.067Z,68.48
2024-01-08T09:41:25.341Z,68.45
2024-01-08T09:44:55.496Z,68.49
2024-01-08T09:48:23.157Z,68.89
2024-01-08T09:51:48.388Z,68.97
2024-01-08T09:55:12.779Z,69.21
2024-01-08T09:58:36.818Z,68.95
2024-01-08T10:02:00.729Z,68.86
2024-01-08T10:05:25.458Z,68.69
2024-01-08T10:08:49.790Z,68.21
2024-01-08T10:12:13.804Z,68.27
2024-01-08T10:15:38.122Z,67.94
2024-01-08T10:19:02.260Z,68.46
2024-01-08T10:22:29.575Z,68.11
2024-01-08T10:25:54.479Z,68.52
2024-01-08T10:29:18.496Z,68.58
2024-01-08T10:32:43.082Z,68.38
2024-01-08T10:36:08.975Z,68.09
2024-01-08T10:39:44.054Z,67.75
2024-01-08T10:43:14.385Z,67.33
2024-01-08T10:46:52.109Z,67.57
2024-01-08T10:50:20.401Z,67.66
2024-01-08T10:53:49.053Z,67.97
2024-01-08T10:57:15.978Z,67.68
2024-01-08T11:00:41.013Z,67.63
2024-01-08T11:04:06.785Z,68.03
2024-01-08T11:07:34.405Z,68.13
2024-01-08T11:11:07.503Z,68.34
2024-01-08T11:14:32.306Z,68.30
2024-01-08T11:17:59.959Z,68.09
2024-01-08T11:21:28.649Z,68.03
2024-01-08T11:24:54.953Z,67.86
2024-01-08T11:28:20.221Z,67.84
2024-01-08T11:31:50.128Z,67.14
2024-01-08T11:35:15.179Z,67.45
2024-01-08T11:38:42.440Z,67.85
2024-01-08T11:42:08.262Z,66.96
2024-01-08T11:45:32.135Z,67.35
2024-01-08T11:48:56.026Z,67.36
2024-01-08T11:52:20.916Z,67.26
2024-01-08T11:55:45.201Z,67.08
2024-01-08T11:59:09.032Z,66.43
2024-01-08T12:02:32.985Z,66.55
2024-01-08T12:06:06.044Z,67.02
2024-01-08T12:09:34.163Z,67.00
2024-01-08T12:12:58.232Z,66.65
2024-01-08T12:16:22.854Z,66.48
2024-01-08T12:19:54.961Z,66.77
2024-01-08T12:23:19.069Z,66.42
2024-01-08T12:26:43.014Z,66.57
2024-01-08T12:30:10.116Z,65.80
2024-01-08T12:33:34.664Z,66.07
2024-01-08T12:37:02.176Z,66.53
2024-01-08T12:40:26.103Z,66.45
2024-01-08T12:43:50.046Z,66.66
2024-01-08T12:47:14.300Z,67.29
2024-01-08T12:50:38.793Z,66.68
2024-01-08T12:54:02.668Z,65.80
2024-01-08T12:57:31.170Z,66.33
2024-01-08T13:00:55.193Z,65.53
2024-01-08T13:04:21.145Z,65.96
2024-01-08T13:07:46.122Z,66.39
2024-01-08T13:11:12.239Z,66.59
2024-01-08T13:14:37.335Z,66.69
2024-01-08T13:18:01.529Z,66.71
2024-01-08T13:21:25.692Z,66.92
2024-01-08T13:24:49.884Z,66.82
2024-01-08T13:28:13.882Z,67.02
2024-01-08T13:31:39.484Z,67.12
2024-01-08T13:35:03.356Z,67.16
2024-01-08T13:38:27.481Z,67.32
2024-01-08T13:41:51.693Z,67.68
2024-01-08T13:45:15.534Z,68.01
2024-01-08T13:48:40.757Z,68.22
2024-01-08T13:52:05.003Z,68.42
2024-01-08T13:55:29.093Z,68.66
2024-01-08T13:58:52.986Z,69.04
2024-01-08T14:02:17.104Z,69.17
2024-01-08T14:05:41.271Z,69.19
2024-01-08T14:09:05.668Z,69.48
2024-01-08T14:12:29.768Z,69.76
2024-01-08T14:15:53.882Z,69.99
2024-01-08T14:19:17.914Z,69.97
2024-01-08T14:22:42.393Z,70.25
2024-01-08T14:26:06.565Z,70.29
2024-01-08T14:29:30.694Z,70.50
2024-01-08T14:33:15.031Z,70.70
2024-01-08T14:37:12.777Z,70.77
2024-01-08T14:41:10.829Z,70.82
2024-01-08T14:45:10.817Z,70.97
2024-01-08T14:49:08.830Z,71.28
2024-01-08T14:53:06.778Z,71.45
2024-01-08T14:57:04.757Z,71.63
2024-01-08T15:01:02.797Z,71.96
2024-01-08T15:05:00.849Z,72.13
2024-01-08T15:08:58.814Z,72.28
2024-01-08T15:12:56.730Z,72.42
2024-01-08T15:16:54.708Z,72.50
2024-01-08T15:20:52.943Z,72.69
2024-01-08T15:24:50.746Z,72.77
2024-01-08T15:28:54.719Z,72.96
2024-01-08T15:32:52.785Z,73.08
2024-01-08T15:36:50.705Z,73.21
2024-01-08T15:40:49.705Z,73.16
2024-01-08T15:44:47.728Z,73.38
2024-01-08T15:48:45.747Z,73.37
2024-01-08T15:52:43.698Z,73.54
2024-01-08T15:56:41.796Z,73.47
2024-01-08T16:00:39.720Z,73.64
2024-01-08T16:04:37.633Z,73.75
2024-01-08T16:08:36.742Z,73.76
2024-01-08T16:12:34.691Z,73.79
2024-01-08T16:16:33.640Z,73.72
2024-01-08T16:20:32.780Z,73.85
2024-01-08T16:24:30.736Z,73.80
2024-01-08T16:28:28.665Z,73.91
2024-01-08T16:32:26.667Z,74.00
2024-01-08T16:36:24.638Z,73.97
2024-01-08T16:40:22.584Z,74.18
2024-01-08T16:44:20.635Z,74.22
2024-01-08T16:48:18.729Z,74.31
2024-01-08T16:52:16.577Z,74.32
2024-01-08T16:56:15.598Z,74.54
2024-01-08T17:00:13.590Z,74.56
2024-01-08T17:04:11.556Z,74.63
2024-01-08T17:08:10.569Z,74.72
2024-01-08T17:12:08.574Z,74.79
2024-01-08T17:16:06.723Z,74.86
2024-01-08T17:20:05.638Z,74.94
2024-01-08T17:24:03.550Z,75.01
2024-01-08T17:28:01.588Z,75.12
2024-01-08T17:31:59.586Z,75.26
2024-01-08T17:35:57.688Z,75.37
2024-01-08T17:39:55.515Z,75.44
2024-01-08T17:43:54.520Z,75.47
2024-01-08T17:47:52.672Z,75.59
2024-01-08T17:51:50.515Z,75.84
2024-01-08T17:55:48.487Z,75.95
2024-01-08T17:59:46.634Z,76.05
2024-01-08T18:03:44.465Z,76.17
2024-01-08T18:07:42.766Z,76.28
2024-01-08T18:11:40.493Z,76.31
2024-01-08T18:15:38.543Z,76.46
2024-01-08T18:19:37.457Z,76.58
2024-01-08T18:23:35.561Z,76.74
2024-01-08T18:27:33.445Z,76.98
2024-01-08T18:31:31.489Z,77.03
2024-01-08T18:35:29.420Z,77.18
2024-01-08T18:39:41.481Z,77.31
2024-01-08T18:43:39.386Z,77.32
2024-01-08T18:47:38.440Z,77.32
2024-01-08T18:51:36.365Z,77.34
2024-01-08T18:55:34.412Z,77.35
2024-01-08T18:59:36.042Z,77.21
2024-01-08T19:03:35.414Z,77.41
2024-01-08T19:07:33.311Z,77.50
2024-01-08T19:11:31.355Z,77.50
2024-01-08T19:15:29.328Z,77.51
2024-01-08T19:19:27.467Z,77.56
2024-01-08T19:23:25.536Z,77.73
2024-01-08T19:27:24.332Z,77.58
2024-01-08T19:31:26.306Z,77.43
2024-01-08T19:35:24.374Z,77.47
2024-01-08T19:39:22.265Z,77.65
2024-01-08T19:43:20.294Z,77.74
2024-01-08T19:47:18.311Z,77.91
2024-01-08T19:51:16.314Z,77.90
2024-01-08T19:55:14.251Z,77.79
2024-01-08T19:59:40.299Z,77.76
2024-01-08T20:03:39.012Z,77.67
2024-01-08T20:07:37.732Z,77.68
2024-01-08T20:11:35.238Z,77.84
2024-01-08T20:15:33.254Z,77.86
2024-01-08T20:19:31.329Z,77.87
2024-01-08T20:23:29.321Z,77.69
2024-01-08T20:27:27.190Z,77.64
2024-01-08T20:31:25.229Z,77.72
2024-01-08T20:35:25.201Z,77.84
2024-01-08T20:39:23.265Z,78.04
2024-01-08T20:43:21.169Z,78.13
2024-01-08T20:47:19.232Z,78.17
2024-01-08T20:51:17.282Z,78.21
2024-01-08T20:55:15.243Z,78.26
2024-01-08T20:59:13.251Z,78.29
2024-01-08T21:03:12.322Z,78.24
2024-01-08T21:07:10.185Z,78.13
2024-01-08T21:11:08.290Z,78.21
2024-01-08T21:15:06.163Z,78.14
2024-01-08T21:19:06.173Z,77.95
2024-01-08T21:23:05.117Z,77.91
2024-01-08T21:27:03.136Z,77.77
2024-01-08T21:31:01.151Z,77.76
2024-01-08T21:34:59.115Z,77.79
2024-01-08T21:38:57.111Z,77.86
2024-01-08T21:42:55.205Z,77.91
2024-01-08T21:46:53.084Z,78.16
2024-01-08T21:50:51.185Z,82.64
